createdAt,value
2018-04-27T00:00:08.200Z,0.00
2018-04-27T00:01:08.188Z,0.00
2018-04-27T00:02:08.176Z,0.00
2018-04-27T00:03:08.172Z,0.00
2018-04-27T00:04:08.195Z,0.00
2018-04-27T00:05:08.161Z,0.00
2018-04-27T00:06:08.125Z,0.00
2018-04-27T00:07:08.132Z,0.00
2018-04-27T00:08:08.100Z,0.00
2018-04-27T00:09:08.095Z,0.00
2018-04-27T00:10:08.118Z,0.00
2018-04-27T00:11:08.070Z,0.00
2018-04-27T00:12:08.052Z,0.00
2018-04-27T00:13:08.041Z,0.00
2018-04-27T00:14:08.024Z,0.00
2018-04-27T00:15:08.012Z,0.00
2018-04-27T00:16:08.000Z,0.00
2018-04-27T00:17:07.986Z,0.00
2018-04-27T00:18:07.973Z,0.00
2018-04-27T00:19:07.964Z,0.00
2018-04-27T00:20:07.961Z,0.00
2018-04-27T00:21:07.981Z,0.00
2018-04-27T00:22:07.933Z,0.00
2018-04-27T00:23:07.910Z,0.00
2018-04-27T00:24:07.909Z,0.00
2018-04-27T00:25:07.888Z,0.00
2018-04-27T00:26:07.874Z,0.00
2018-04-27T00:27:07.893Z,0.00
2018-04-27T00:28:07.849Z,0.00
2018-04-27T00:29:07.834Z,0.00
2018-04-27T00:30:07.824Z,0.00
2018-04-27T00:31:07.808Z,0.00
2018-04-27T00:32:07.795Z,0.00
2018-04-27T00:33:07.784Z,0.00
2018-04-27T00:34:07.770Z,0.00
2018-04-27T00:35:07.757Z,0.00
2018-04-27T00:36:07.745Z,0.00
2018-04-27T00:37:07.750Z,0.00
2018-04-27T00:38:07.779Z,0.00
2018-04-27T00:39:07.729Z,0.00
2018-04-27T00:40:07.696Z,0.00
2018-04-27T00:41:07.712Z,0.00
2018-04-27T00:42:07.669Z,0.00
2018-04-27T00:43:07.666Z,0.00
2018-04-27T00:44:07.877Z,0.00
2018-04-27T00:45:07.641Z,0.00
2018-04-27T00:46:07.618Z,0.00
2018-04-27T00:47:07.625Z,0.00
2018-04-27T00:48:07.594Z,0.00
2018-04-27T00:49:07.581Z,0.00
2018-04-27T00:50:07.568Z,0.00
2018-04-27T00:51:07.555Z,0.00
2018-04-27T00:52:07.542Z,0.00
2018-04-27T00:53:07.531Z,0.00
2018-04-27T00:54:07.544Z,0.00
2018-04-27T00:55:07.503Z,0.00
2018-04-27T00:56:07.516Z,0.00
2018-04-27T00:57:07.479Z,0.00
2018-04-27T00:58:07.465Z,0.00
2018-04-27T00:59:07.453Z,0.00
2018-04-27T01:00:07.461Z,0.00
2018-04-27T01:01:07.428Z,0.00
2018-04-27T01:02:07.436Z,0.00
2018-04-27T01:03:07.405Z,0.00
2018-04-27T01:04:07.390Z,0.00
2018-04-27T01:05:07.378Z,0.00
2018-04-27T01:06:07.364Z,0.00
2018-04-27T01:07:07.352Z,0.00
2018-04-27T01:08:07.339Z,0.00
2018-04-27T01:09:07.327Z,0.00
2018-04-27T01:10:07.313Z,0.00
2018-04-27T01:11:07.341Z,0.00
2018-04-27T01:12:07.289Z,0.00
2018-04-27T01:13:07.319Z,0.00
2018-04-27T01:14:07.268Z,0.00
2018-04-27T01:15:07.251Z,0.00
2018-04-27T01:16:07.244Z,0.00
2018-04-27T01:17:07.241Z,0.00
2018-04-27T01:18:07.213Z,0.00
2018-04-27T01:19:07.213Z,0.00
2018-04-27T01:20:07.194Z,0.00
2018-04-27T01:21:07.175Z,0.00
2018-04-27T01:22:07.162Z,0.00
2018-04-27T01:23:07.150Z,0.00
2018-04-27T01:24:07.137Z,0.00
2018-04-27T01:25:07.125Z,0.00
2018-04-27T01:26:07.116Z,0.00
2018-04-27T01:27:07.098Z,0.00
2018-04-27T01:28:07.119Z,0.00
2018-04-27T01:29:07.073Z,0.00
2018-04-27T01:30:07.099Z,0.00
2018-04-27T01:31:07.046Z,0.00
2018-04-27T01:32:07.037Z,0.00
2018-04-27T01:34:07.038Z,0.00
2018-04-27T01:35:06.995Z,0.00
2018-04-27T01:36:07.015Z,0.00
2018-04-27T01:37:06.969Z,0.00
2018-04-27T01:38:06.957Z,0.00
2018-04-27T01:39:06.944Z,0.00
2018-04-27T01:40:06.931Z,0.00
2018-04-27T01:41:06.919Z,0.00
2018-04-27T01:42:06.905Z,0.00
2018-04-27T01:43:06.895Z,0.00
2018-04-27T01:44:06.890Z,0.00
2018-04-27T01:45:06.908Z,0.00
2018-04-27T01:46:06.864Z,0.00
2018-04-27T01:47:06.842Z,0.00
2018-04-27T01:48:06.843Z,0.00
2018-04-27T01:49:06.826Z,0.00
2018-04-27T01:50:06.803Z,0.00
2018-04-27T01:51:06.825Z,0.00
2018-04-27T01:52:06.781Z,0.00
2018-04-27T01:53:06.765Z,0.00
2018-04-27T01:54:06.752Z,0.00
2018-04-27T01:55:06.740Z,0.00
2018-04-27T01:56:06.727Z,0.00
2018-04-27T01:57:06.715Z,0.00
2018-04-27T01:58:06.707Z,0.00
2018-04-27T01:59:06.690Z,0.00
2018-04-27T02:00:06.676Z,0.00
2018-04-27T02:01:06.663Z,0.00
2018-04-27T02:02:06.879Z,0.00
2018-04-27T02:03:06.660Z,0.00
2018-04-27T02:04:06.628Z,0.00
2018-04-27T02:05:06.640Z,0.00
2018-04-27T02:06:06.598Z,0.00
2018-04-27T02:07:06.596Z,0.00
2018-04-27T02:08:06.626Z,0.00
2018-04-27T02:09:06.570Z,0.00
2018-04-27T02:10:06.546Z,0.00
2018-04-27T02:11:06.551Z,0.00
2018-04-27T02:12:06.521Z,0.00
2018-04-27T02:13:06.509Z,0.00
2018-04-27T02:14:06.495Z,0.00
2018-04-27T02:15:06.482Z,0.00
2018-04-27T02:16:06.470Z,0.00
2018-04-27T02:17:06.470Z,0.00
2018-04-27T02:18:06.489Z,0.00
2018-04-27T02:19:06.451Z,0.00
2018-04-27T02:20:06.422Z,0.00
2018-04-27T02:21:06.419Z,0.00
2018-04-27T02:22:06.392Z,0.00
2018-04-27T02:23:06.389Z,0.00
2018-04-27T02:24:06.408Z,0.00
2018-04-27T02:25:06.363Z,0.00
2018-04-27T02:26:06.341Z,0.00
2018-04-27T02:27:06.337Z,0.00
2018-04-27T02:28:06.316Z,0.00
2018-04-27T02:29:06.303Z,0.00
2018-04-27T02:30:06.291Z,0.00
2018-04-27T02:31:06.277Z,0.00
2018-04-27T02:32:06.267Z,0.00
2018-04-27T02:33:06.253Z,0.00
2018-04-27T02:34:06.259Z,0.00
2018-04-27T02:35:06.263Z,0.00
2018-04-27T02:36:06.241Z,0.00
2018-04-27T02:37:06.201Z,0.00
2018-04-27T02:38:06.225Z,0.00
2018-04-27T02:39:06.177Z,0.00
2018-04-27T02:40:06.183Z,0.00
2018-04-27T02:41:06.189Z,0.00
2018-04-27T02:42:06.153Z,0.00
2018-04-27T02:43:06.123Z,0.00
2018-04-27T02:44:06.134Z,0.00
2018-04-27T02:45:06.099Z,0.00
2018-04-27T02:46:06.086Z,0.00
2018-04-27T02:47:06.072Z,0.00
2018-04-27T02:48:06.079Z,0.00
2018-04-27T02:49:06.050Z,0.00
2018-04-27T02:50:06.034Z,0.00
2018-04-27T02:51:06.052Z,0.00
2018-04-27T02:52:06.012Z,0.00
2018-04-27T02:53:06.028Z,0.00
2018-04-27T02:54:05.984Z,0.00
2018-04-27T02:55:05.971Z,0.00
2018-04-27T02:56:05.964Z,0.00
2018-04-27T02:57:05.973Z,0.00
2018-04-27T02:58:05.935Z,0.00
2018-04-27T02:59:05.950Z,0.00
2018-04-27T03:00:05.909Z,0.00
2018-04-27T03:01:05.895Z,0.00
2018-04-27T03:02:05.881Z,0.00
2018-04-27T03:03:05.869Z,0.00
2018-04-27T03:04:05.856Z,0.00
2018-04-27T03:05:05.844Z,0.00
2018-04-27T03:06:05.833Z,0.00
2018-04-27T03:07:05.818Z,0.00
2018-04-27T03:08:05.845Z,0.00
2018-04-27T03:09:05.803Z,0.00
2018-04-27T03:10:06.009Z,0.00
2018-04-27T03:11:05.778Z,0.00
2018-04-27T03:12:05.753Z,0.00
2018-04-27T03:13:05.792Z,0.00
2018-04-27T03:14:05.727Z,0.00
2018-04-27T03:15:05.714Z,0.00
2018-04-27T03:16:05.746Z,0.00
2018-04-27T03:17:05.696Z,0.00
2018-04-27T03:18:05.676Z,0.00
2018-04-27T03:19:05.677Z,0.00
2018-04-27T03:20:05.650Z,0.00
2018-04-27T03:21:05.640Z,0.00
2018-04-27T03:22:05.624Z,0.00
2018-04-27T03:23:05.614Z,0.00
2018-04-27T03:24:05.612Z,0.00
2018-04-27T03:25:05.632Z,0.00
2018-04-27T03:26:05.596Z,0.00
2018-04-27T03:27:05.561Z,0.00
2018-04-27T03:28:05.568Z,0.00
2018-04-27T03:29:05.535Z,0.00
2018-04-27T03:30:05.537Z,0.00
2018-04-27T03:31:05.561Z,0.00
2018-04-27T03:32:05.512Z,0.00
2018-04-27T03:33:05.484Z,0.00
2018-04-27T03:34:05.486Z,0.00
2018-04-27T03:35:05.458Z,0.00
2018-04-27T03:36:05.446Z,0.00
2018-04-27T03:37:05.433Z,0.00
2018-04-27T03:38:05.420Z,0.00
2018-04-27T03:39:05.410Z,0.00
2018-04-27T03:40:05.398Z,0.00
2018-04-27T03:41:05.381Z,4.00
2018-04-27T03:42:05.367Z,4.00
2018-04-27T03:43:05.399Z,4.00
2018-04-27T03:44:05.349Z,4.00
2018-04-27T03:45:05.379Z,4.00
2018-04-27T03:46:05.315Z,0.00
2018-04-27T03:47:05.311Z,4.00
2018-04-27T03:48:05.289Z,4.00
2018-04-27T03:49:05.480Z,4.00
2018-04-27T03:50:05.263Z,8.00
2018-04-27T03:51:05.259Z,4.00
2018-04-27T03:52:05.238Z,8.00
2018-04-27T03:53:05.225Z,8.00
2018-04-27T03:54:05.211Z,12.00
2018-04-27T03:55:05.203Z,12.00
2018-04-27T03:56:05.189Z,12.00
2018-04-27T03:57:05.200Z,16.00
2018-04-27T03:58:05.160Z,16.00
2018-04-27T03:59:05.161Z,20.00
2018-04-27T04:00:05.135Z,24.00
2018-04-27T04:01:05.150Z,28.00
2018-04-27T04:02:05.109Z,32.00
2018-04-27T04:03:05.099Z,36.00
2018-04-27T04:04:05.083Z,40.00
2018-04-27T04:05:05.071Z,48.00
2018-04-27T04:06:05.083Z,52.00
2018-04-27T04:07:05.122Z,56.00
2018-04-27T04:08:05.067Z,60.00
2018-04-27T04:09:05.019Z,68.00
2018-04-27T04:10:05.231Z,72.00
2018-04-27T04:11:05.043Z,84.00
2018-04-27T04:12:04.994Z,88.00
2018-04-27T04:13:05.217Z,100.00
2018-04-27T04:14:04.953Z,108.00
2018-04-27T04:15:05.084Z,120.00
2018-04-27T04:16:04.927Z,136.00
2018-04-27T04:17:04.920Z,148.00
2018-04-27T04:18:04.944Z,164.00
2018-04-27T04:19:04.889Z,172.00
2018-04-27T04:20:04.964Z,184.00
2018-04-27T04:21:04.863Z,196.00
2018-04-27T04:22:04.849Z,216.00
2018-04-27T04:23:04.842Z,232.00
2018-04-27T04:24:04.823Z,252.00
2018-04-27T04:25:04.811Z,272.00
2018-04-27T04:26:04.811Z,292.00
2018-04-27T04:27:04.792Z,312.00
2018-04-27T04:28:04.775Z,332.00
2018-04-27T04:29:04.764Z,360.00
2018-04-27T04:30:04.745Z,388.00
2018-04-27T04:31:04.736Z,424.00
2018-04-27T04:32:04.720Z,468.00
2018-04-27T04:33:04.708Z,520.00
2018-04-27T04:34:04.698Z,584.00
2018-04-27T04:35:04.680Z,660.00
2018-04-27T04:36:04.669Z,744.00
2018-04-27T04:37:04.688Z,828.00
2018-04-27T04:38:04.641Z,916.00
2018-04-27T04:39:04.636Z,988.00
2018-04-27T04:40:04.616Z,1052.00
2018-04-27T04:41:04.603Z,1112.00
2018-04-27T04:42:04.655Z,1160.00
2018-04-27T04:43:04.588Z,1200.00
2018-04-27T04:44:04.565Z,1236.00
2018-04-27T04:45:04.641Z,1276.00
2018-04-27T04:46:04.537Z,1320.00
2018-04-27T04:47:04.527Z,1360.00
2018-04-27T04:48:04.513Z,1420.00
2018-04-27T04:49:04.573Z,1528.00
2018-04-27T04:50:04.511Z,1676.00
2018-04-27T04:51:04.486Z,1788.00
2018-04-27T04:52:04.461Z,1840.00
2018-04-27T04:53:04.453Z,1872.00
2018-04-27T04:54:04.436Z,1936.00
2018-04-27T04:55:04.482Z,2020.00
2018-04-27T04:56:04.433Z,2104.00
2018-04-27T04:57:04.397Z,2212.00
2018-04-27T04:58:04.384Z,2336.00
2018-04-27T04:59:04.372Z,2472.00
2018-04-27T05:00:04.359Z,2596.00
2018-04-27T05:01:04.347Z,2716.00
2018-04-27T05:02:04.352Z,2856.00
2018-04-27T05:03:04.393Z,3028.00
2018-04-27T05:04:04.309Z,3188.00
2018-04-27T05:05:04.298Z,3300.00
2018-04-27T05:06:04.288Z,3404.00
2018-04-27T05:07:04.325Z,3520.00
2018-04-27T05:08:04.272Z,3668.00
2018-04-27T05:09:04.249Z,3776.00
2018-04-27T05:10:04.235Z,3800.00
2018-04-27T05:11:04.223Z,3780.00
2018-04-27T05:12:04.237Z,3804.00
2018-04-27T05:13:04.257Z,3888.00
2018-04-27T05:14:04.187Z,3916.00
2018-04-27T05:15:04.175Z,3792.00
2018-04-27T05:16:04.169Z,3580.00
2018-04-27T05:17:04.166Z,3404.00
2018-04-27T05:18:04.142Z,3296.00
2018-04-27T05:19:04.130Z,3236.00
2018-04-27T05:20:04.115Z,3244.00
2018-04-27T05:21:04.105Z,3360.00
2018-04-27T05:22:04.293Z,3584.00
2018-04-27T05:23:04.079Z,3784.00
2018-04-27T05:24:04.071Z,3864.00
2018-04-27T05:25:04.055Z,4020.00
2018-04-27T05:26:04.042Z,4420.00
2018-04-27T05:28:04.040Z,4860.00
2018-04-27T05:29:04.012Z,4920.00
2018-04-27T05:30:03.995Z,5076.00
2018-04-27T05:31:04.016Z,5272.00
2018-04-27T05:32:04.174Z,5420.00
2018-04-27T05:33:03.989Z,5292.00
2018-04-27T05:34:03.950Z,5224.00
2018-04-27T05:35:03.935Z,5160.00
2018-04-27T05:36:03.924Z,5224.00
2018-04-27T05:37:03.913Z,5204.00
2018-04-27T05:38:03.902Z,5336.00
2018-04-27T05:39:03.888Z,5476.00
2018-04-27T05:40:04.081Z,5516.00
2018-04-27T05:41:03.870Z,5656.00
2018-04-27T05:42:04.063Z,5732.00
2018-04-27T05:44:03.875Z,6004.00
2018-04-27T05:45:03.822Z,5928.00
2018-04-27T05:46:03.809Z,5768.00
2018-04-27T05:47:03.798Z,5556.00
2018-04-27T05:48:03.786Z,5344.00
2018-04-27T05:49:03.845Z,5136.00
2018-04-27T05:50:03.772Z,4980.00
2018-04-27T05:51:03.753Z,4776.00
2018-04-27T05:52:03.742Z,4680.00
2018-04-27T05:53:03.731Z,4784.00
2018-04-27T05:54:03.719Z,4920.00
2018-04-27T05:55:03.708Z,5024.00
2018-04-27T05:56:03.904Z,5432.00
2018-04-27T05:57:03.699Z,5972.00
2018-04-27T05:58:03.676Z,6488.00
2018-04-27T05:59:03.670Z,7068.00
2018-04-27T06:00:03.656Z,7512.00
2018-04-27T06:01:03.647Z,7960.00
2018-04-27T06:02:03.643Z,8284.00
2018-04-27T06:03:03.621Z,8848.00
2018-04-27T06:04:03.623Z,8932.00
2018-04-27T06:05:03.609Z,9200.00
2018-04-27T06:06:03.590Z,9380.00
2018-04-27T06:07:03.580Z,9652.00
2018-04-27T06:08:03.570Z,9416.00
2018-04-27T06:09:03.764Z,9276.00
2018-04-27T06:10:03.642Z,9028.00
2018-04-27T06:11:03.565Z,9216.00
2018-04-27T06:12:03.531Z,9364.00
2018-04-27T06:13:03.517Z,9464.00
2018-04-27T06:14:03.510Z,9448.00
2018-04-27T06:15:03.527Z,9492.00
2018-04-27T06:16:03.566Z,9608.00
2018-04-27T06:17:03.475Z,9680.00
2018-04-27T06:18:03.469Z,9632.00
2018-04-27T06:19:03.497Z,9600.00
2018-04-27T06:20:03.444Z,9564.00
2018-04-27T06:21:03.435Z,9580.00
2018-04-27T06:22:03.430Z,9612.00
2018-04-27T06:23:03.443Z,9660.00
2018-04-27T06:24:03.406Z,9728.00
2018-04-27T06:25:03.395Z,9832.00
2018-04-27T06:26:03.388Z,10060.00
2018-04-27T06:27:03.375Z,10160.00
2018-04-27T06:28:03.450Z,10144.00
2018-04-27T06:29:03.373Z,10228.00
2018-04-27T06:30:03.346Z,10416.00
2018-04-27T06:31:03.336Z,10504.00
2018-04-27T06:32:03.329Z,10512.00
2018-04-27T06:33:03.402Z,10752.00
2018-04-27T06:34:03.312Z,10928.00
2018-04-27T06:35:03.300Z,11192.00
2018-04-27T06:36:03.291Z,11504.00
2018-04-27T06:37:03.280Z,11816.00
2018-04-27T06:38:03.339Z,12092.00
2018-04-27T06:39:03.268Z,12328.00
2018-04-27T06:40:03.252Z,12464.00
2018-04-27T06:41:03.243Z,12768.00
2018-04-27T06:42:03.473Z,12636.00
2018-04-27T06:43:03.229Z,12560.00
2018-04-27T06:44:03.216Z,12432.00
2018-04-27T06:45:03.207Z,12412.00
2018-04-27T06:46:03.199Z,12492.00
2018-04-27T06:47:03.244Z,12816.00
2018-04-27T06:48:03.219Z,12908.00
2018-04-27T06:49:03.176Z,12788.00
2018-04-27T06:50:03.163Z,12656.00
2018-04-27T06:51:03.162Z,12560.00
2018-04-27T06:52:03.360Z,12584.00
2018-04-27T06:53:03.185Z,12696.00
2018-04-27T06:54:03.129Z,13028.00
2018-04-27T06:55:03.125Z,13756.00
2018-04-27T06:56:03.114Z,13924.00
2018-04-27T06:57:03.206Z,15968.00
2018-04-27T06:58:03.097Z,18784.00
2018-04-27T06:59:03.103Z,18400.00
2018-04-27T07:00:03.142Z,22720.00
2018-04-27T07:01:03.077Z,33888.00
2018-04-27T07:02:03.279Z,27648.00
2018-04-27T07:03:03.106Z,19584.00
2018-04-27T07:04:03.133Z,23520.00
2018-04-27T07:05:03.051Z,28896.00
2018-04-27T07:06:03.033Z,23328.00
2018-04-27T07:07:03.034Z,18880.00
2018-04-27T07:08:03.019Z,15564.00
2018-04-27T07:09:03.020Z,23488.00
2018-04-27T07:10:03.111Z,30656.00
2018-04-27T07:11:03.068Z,25088.00
2018-04-27T07:12:03.075Z,37888.00
2018-04-27T07:13:03.948Z,44512.00
2018-04-27T07:14:03.097Z,38656.00
2018-04-27T07:16:03.049Z,40512.00
2018-04-27T07:17:03.143Z,35936.00
2018-04-27T07:18:02.948Z,34976.00
2018-04-27T07:19:02.971Z,30336.00
2018-04-27T07:20:03.694Z,41344.00
2018-04-27T07:21:02.981Z,38656.00
2018-04-27T07:22:02.975Z,45248.00
2018-04-27T07:23:02.997Z,46688.00
2018-04-27T07:24:02.979Z,37024.00
2018-04-27T07:25:03.229Z,47712.00
2018-04-27T07:27:03.007Z,34816.00
2018-04-27T07:28:02.948Z,37888.00
2018-04-27T07:29:02.981Z,45984.00
2018-04-27T07:31:02.967Z,55296.00
2018-04-27T07:32:02.974Z,41632.00
2018-04-27T07:34:02.952Z,56224.00
2018-04-27T07:35:02.947Z,25824.00
2018-04-27T07:36:02.971Z,57920.00
2018-04-27T07:37:02.968Z,57312.00
2018-04-27T07:38:02.910Z,60384.00
2018-04-27T07:39:02.923Z,44992.00
2018-04-27T07:40:02.952Z,53568.00
2018-04-27T07:41:03.154Z,36096.00
2018-04-27T07:42:02.940Z,51392.00
2018-04-27T07:43:02.885Z,59712.00
2018-04-27T07:44:02.912Z,45120.00
2018-04-27T07:45:02.893Z,33728.00
2018-04-27T07:46:02.952Z,52704.00
2018-04-27T07:47:03.101Z,44512.00
2018-04-27T07:48:02.900Z,39424.00
2018-04-27T07:49:02.950Z,38976.00
2018-04-27T07:52:03.520Z,52800.00
2018-04-27T07:53:02.891Z,56128.00
2018-04-27T07:54:02.958Z,49856.00
2018-04-27T07:55:02.930Z,41728.00
2018-04-27T07:56:02.993Z,42848.00
2018-04-27T07:57:02.884Z,41408.00
2018-04-27T08:00:02.898Z,49600.00
2018-04-27T08:01:02.930Z,41216.00
2018-04-27T08:02:03.137Z,41632.00
2018-04-27T08:03:02.902Z,40928.00
2018-04-27T08:04:02.904Z,40160.00
2018-04-27T08:05:02.929Z,35328.00
2018-04-27T08:06:02.930Z,45824.00
2018-04-27T08:07:02.958Z,38464.00
2018-04-27T08:08:02.917Z,39680.00
2018-04-27T08:09:02.877Z,40512.00
2018-04-27T08:10:03.138Z,34240.00
2018-04-27T08:11:02.936Z,41216.00
2018-04-27T08:12:02.990Z,52352.00
2018-04-27T08:13:02.942Z,51296.00
2018-04-27T08:14:02.944Z,61088.00
2018-04-27T08:15:02.938Z,70720.00
2018-04-27T08:16:03.215Z,64192.00
2018-04-27T08:17:02.915Z,72896.00
2018-04-27T08:18:03.097Z,78080.00
2018-04-27T08:20:02.899Z,56384.00
2018-04-27T08:21:02.906Z,47552.00
2018-04-27T08:22:02.949Z,43008.00
2018-04-27T08:23:02.918Z,41248.00
2018-04-27T08:24:03.140Z,50336.00
2018-04-27T08:25:02.991Z,47552.00
2018-04-27T08:26:02.948Z,43680.00
2018-04-27T08:27:03.180Z,45216.00
2018-04-27T08:28:02.960Z,46208.00
2018-04-27T08:29:02.963Z,41984.00
2018-04-27T08:30:02.949Z,52448.00
2018-04-27T08:31:02.984Z,48032.00
2018-04-27T08:32:02.949Z,43296.00
2018-04-27T08:33:02.960Z,50240.00
2018-04-27T08:34:03.173Z,57280.00
2018-04-27T08:35:03.228Z,55648.00
2018-04-27T08:36:02.978Z,60672.00
2018-04-27T08:37:02.932Z,61216.00
2018-04-27T08:38:03.011Z,70208.00
2018-04-27T08:39:02.979Z,58688.00
2018-04-27T08:40:03.207Z,51200.00
2018-04-27T08:41:03.000Z,52064.00
2018-04-27T08:42:02.990Z,53056.00
2018-04-27T08:44:02.925Z,49088.00
2018-04-27T08:45:03.020Z,47968.00
2018-04-27T08:46:03.062Z,55008.00
2018-04-27T08:47:03.013Z,47520.00
2018-04-27T08:48:03.033Z,44256.00
2018-04-27T08:50:03.027Z,40032.00
2018-04-27T08:51:03.045Z,42560.00
2018-04-27T08:52:03.042Z,49792.00
2018-04-27T08:53:03.064Z,39360.00
2018-04-27T08:54:03.006Z,35616.00
2018-04-27T08:55:03.065Z,36128.00
2018-04-27T08:56:02.986Z,35840.00
2018-04-27T08:57:03.242Z,41952.00
2018-04-27T08:58:03.037Z,34784.00
2018-04-27T08:59:03.052Z,34016.00
2018-04-27T09:01:03.088Z,45856.00
2018-04-27T09:02:03.048Z,48736.00
2018-04-27T09:04:03.040Z,55744.00
2018-04-27T09:05:03.047Z,50432.00
2018-04-27T09:06:03.059Z,55456.00
2018-04-27T09:07:03.062Z,56704.00
2018-04-27T09:08:03.052Z,55936.00
2018-04-27T09:09:03.223Z,51360.00
2018-04-27T09:10:03.244Z,43680.00
2018-04-27T09:11:03.149Z,45408.00
2018-04-27T09:12:03.083Z,37024.00
2018-04-27T09:13:03.091Z,32224.00
2018-04-27T09:14:03.050Z,35616.00
2018-04-27T09:15:03.248Z,37536.00
2018-04-27T09:16:03.041Z,41760.00
2018-04-27T09:17:03.263Z,40160.00
2018-04-27T09:18:03.097Z,39872.00
2018-04-27T09:20:03.125Z,49696.00
2018-04-27T09:21:03.030Z,54816.00
2018-04-27T09:22:03.077Z,46400.00
2018-04-27T09:23:03.135Z,44384.00
2018-04-27T09:24:03.095Z,41888.00
2018-04-27T09:25:03.092Z,39968.00
2018-04-27T09:26:03.072Z,44288.00
2018-04-27T09:27:03.129Z,46560.00
2018-04-27T09:28:03.121Z,47744.00
2018-04-27T09:29:03.152Z,43872.00
2018-04-27T09:30:03.149Z,52736.00
2018-04-27T09:31:03.167Z,48864.00
2018-04-27T09:32:03.130Z,45504.00
2018-04-27T09:33:03.125Z,48896.00
2018-04-27T09:34:03.145Z,52832.00
2018-04-27T09:35:03.105Z,39136.00
2018-04-27T09:36:03.122Z,58688.00
2018-04-27T09:37:03.107Z,32704.00
2018-04-27T09:38:03.081Z,28352.00
2018-04-27T09:39:03.150Z,28064.00
2018-04-27T09:40:03.133Z,58880.00
2018-04-27T09:41:03.166Z,52352.00
2018-04-27T09:42:03.272Z,59968.00
2018-04-27T09:43:03.150Z,63424.00
2018-04-27T09:44:03.083Z,52320.00
2018-04-27T09:45:03.151Z,65216.00
2018-04-27T09:46:03.224Z,57312.00
2018-04-27T09:47:03.370Z,59712.00
2018-04-27T09:48:03.146Z,63040.00
2018-04-27T09:49:03.187Z,49632.00
2018-04-27T09:50:03.125Z,66720.00
2018-04-27T09:51:03.167Z,57504.00
2018-04-27T09:52:03.161Z,58944.00
2018-04-27T09:53:03.171Z,61184.00
2018-04-27T09:55:03.149Z,58880.00
2018-04-27T09:57:03.182Z,46784.00
2018-04-27T09:58:03.228Z,46304.00
2018-04-27T09:59:03.167Z,41280.00
2018-04-27T10:00:03.218Z,36000.00
2018-04-27T10:01:03.241Z,51840.00
2018-04-27T10:02:03.236Z,45088.00
2018-04-27T10:03:03.187Z,48064.00
2018-04-27T10:04:03.238Z,41056.00
2018-04-27T10:05:03.225Z,37024.00
2018-04-27T10:06:03.233Z,42720.00
2018-04-27T10:07:03.242Z,31584.00
2018-04-27T10:08:03.213Z,38016.00
2018-04-27T10:09:03.333Z,51712.00
2018-04-27T10:10:03.217Z,51584.00
2018-04-27T10:11:03.267Z,51968.00
2018-04-27T10:13:03.454Z,54240.00
2018-04-27T10:14:03.257Z,56800.00
2018-04-27T10:15:03.596Z,54208.00
2018-04-27T10:16:03.269Z,48064.00
2018-04-27T10:17:03.264Z,46560.00
2018-04-27T10:18:03.467Z,43904.00
2018-04-27T10:19:03.268Z,45216.00
2018-04-27T10:20:03.259Z,46144.00
2018-04-27T10:21:03.256Z,36160.00
2018-04-27T10:22:03.263Z,34240.00
2018-04-27T10:23:03.259Z,36992.00
2018-04-27T10:24:03.230Z,39072.00
2018-04-27T10:25:03.283Z,37024.00
2018-04-27T10:26:03.356Z,41024.00
2018-04-27T10:27:03.274Z,38240.00
2018-04-27T10:28:03.327Z,37440.00
2018-04-27T10:29:03.282Z,37216.00
2018-04-27T10:30:03.267Z,38208.00
2018-04-27T10:31:03.408Z,37408.00
2018-04-27T10:32:03.268Z,36864.00
2018-04-27T10:33:03.276Z,35328.00
2018-04-27T10:34:03.286Z,34464.00
2018-04-27T10:35:03.282Z,35904.00
2018-04-27T10:36:03.287Z,31712.00
2018-04-27T10:37:03.343Z,31968.00
2018-04-27T10:38:03.277Z,28192.00
2018-04-27T10:39:03.289Z,25632.00
2018-04-27T10:40:03.369Z,25600.00
2018-04-27T10:41:03.337Z,23072.00
2018-04-27T10:42:03.311Z,22560.00
2018-04-27T10:43:03.369Z,22304.00
2018-04-27T10:44:03.293Z,21568.00
2018-04-27T10:45:03.289Z,21664.00
2018-04-27T10:46:03.371Z,22112.00
2018-04-27T10:47:03.474Z,23680.00
2018-04-27T10:48:03.393Z,27008.00
2018-04-27T10:49:03.293Z,31424.00
2018-04-27T10:50:03.290Z,49952.00
2018-04-27T10:51:03.347Z,62080.00
2018-04-27T10:52:03.299Z,56352.00
2018-04-27T10:53:03.316Z,53664.00
2018-04-27T10:54:03.295Z,50720.00
2018-04-27T10:55:03.362Z,31744.00
2018-04-27T10:56:03.404Z,29088.00
2018-04-27T10:57:03.375Z,27008.00
2018-04-27T10:58:03.345Z,28352.00
2018-04-27T10:59:03.360Z,26240.00
2018-04-27T11:00:03.359Z,27232.00
2018-04-27T11:01:03.341Z,22432.00
2018-04-27T11:02:03.315Z,22016.00
2018-04-27T11:03:03.315Z,21920.00
2018-04-27T11:04:03.352Z,22336.00
2018-04-27T11:05:03.332Z,21376.00
2018-04-27T11:06:03.353Z,20448.00
2018-04-27T11:07:03.376Z,19008.00
2018-04-27T11:08:03.359Z,18464.00
2018-04-27T11:09:03.322Z,20544.00
2018-04-27T11:10:03.335Z,22400.00
2018-04-27T11:11:03.670Z,22080.00
2018-04-27T11:12:03.620Z,26304.00
2018-04-27T11:13:03.390Z,30432.00
2018-04-27T11:14:03.351Z,65696.00
2018-04-27T11:15:03.323Z,49664.00
2018-04-27T11:16:03.372Z,52960.00
2018-04-27T11:17:03.383Z,73120.00
2018-04-27T11:18:03.359Z,49280.00
2018-04-27T11:19:03.375Z,48608.00
2018-04-27T11:20:03.349Z,41632.00
2018-04-27T11:21:03.552Z,32960.00
2018-04-27T11:22:03.341Z,50848.00
2018-04-27T11:23:03.369Z,31936.00
2018-04-27T11:24:03.389Z,33120.00
2018-04-27T11:25:03.320Z,40128.00
2018-04-27T11:26:03.415Z,60608.00
2018-04-27T11:27:03.340Z,57984.00
2018-04-27T11:28:03.337Z,58176.00
2018-04-27T11:29:03.414Z,35328.00
2018-04-27T11:30:03.384Z,41632.00
2018-04-27T11:31:03.401Z,53792.00
2018-04-27T11:32:03.360Z,84864.00
2018-04-27T11:33:03.419Z,86400.00
2018-04-27T11:34:03.389Z,69600.00
2018-04-27T11:35:03.429Z,55776.00
2018-04-27T11:36:03.410Z,44448.00
2018-04-27T11:37:03.396Z,40000.00
2018-04-27T11:38:03.452Z,56704.00
2018-04-27T11:39:03.448Z,37984.00
2018-04-27T11:40:03.451Z,47488.00
2018-04-27T11:41:03.429Z,64096.00
2018-04-27T11:42:03.442Z,55360.00
2018-04-27T11:43:03.479Z,26816.00
2018-04-27T11:44:03.429Z,25024.00
2018-04-27T11:45:03.464Z,41056.00
2018-04-27T11:46:03.467Z,36000.00
2018-04-27T11:47:03.519Z,38144.00
2018-04-27T11:48:03.472Z,49664.00
2018-04-27T11:49:03.460Z,30144.00
2018-04-27T11:50:03.536Z,45280.00
2018-04-27T11:51:03.515Z,51232.00
2018-04-27T11:52:03.587Z,59136.00
2018-04-27T11:53:03.526Z,29344.00
2018-04-27T11:54:03.509Z,27840.00
2018-04-27T11:55:03.465Z,31392.00
2018-04-27T11:56:03.523Z,37952.00
2018-04-27T11:57:03.564Z,65632.00
2018-04-27T11:58:03.529Z,43936.00
2018-04-27T11:59:03.503Z,66400.00
2018-04-27T12:00:03.529Z,57568.00
2018-04-27T12:01:03.781Z,59552.00
2018-04-27T12:02:03.760Z,49056.00
2018-04-27T12:03:03.535Z,49824.00
2018-04-27T12:04:03.583Z,63648.00
2018-04-27T12:05:03.550Z,52320.00
2018-04-27T12:06:03.538Z,61760.00
2018-04-27T12:07:03.541Z,57152.00
2018-04-27T12:08:03.596Z,58240.00
2018-04-27T12:09:03.619Z,64096.00
2018-04-27T12:10:03.610Z,50720.00
2018-04-27T12:11:03.572Z,44448.00
2018-04-27T12:12:03.639Z,63360.00
2018-04-27T12:13:03.651Z,41664.00
2018-04-27T12:14:03.604Z,70304.00
2018-04-27T12:15:03.676Z,54080.00
2018-04-27T12:16:03.638Z,46720.00
2018-04-27T12:17:03.705Z,71744.00
2018-04-27T12:18:03.644Z,68704.00
2018-04-27T12:19:03.866Z,68768.00
2018-04-27T12:20:03.680Z,66944.00
2018-04-27T12:21:03.678Z,70464.00
2018-04-27T12:22:03.650Z,63232.00
2018-04-27T12:23:03.677Z,59776.00
2018-04-27T12:24:03.670Z,43328.00
2018-04-27T12:25:03.676Z,28832.00
2018-04-27T12:26:03.675Z,19296.00
2018-04-27T12:27:03.945Z,16332.00
2018-04-27T12:28:03.719Z,24320.00
2018-04-27T12:29:03.749Z,21920.00
2018-04-27T12:30:03.947Z,19552.00
2018-04-27T12:31:03.767Z,16352.00
2018-04-27T12:32:03.667Z,18400.00
2018-04-27T12:33:03.768Z,17728.00
2018-04-27T12:34:03.769Z,16352.00
2018-04-27T12:35:03.774Z,14964.00
2018-04-27T12:36:03.765Z,15776.00
2018-04-27T12:37:03.813Z,13084.00
2018-04-27T12:38:03.722Z,16864.00